createdAt,value
2018-12-13T00:00:44.939Z,92.00
2018-12-13T00:03:15.643Z,92.00
2018-12-13T00:05:46.354Z,91.90
2018-12-13T00:08:15.171Z,92.20
2018-12-13T00:10:45.878Z,92.20
2018-12-13T00:13:14.616Z,92.10
2018-12-13T00:15:44.526Z,92.20
2018-12-13T00:18:13.192Z,92.40
2018-12-13T00:20:41.911Z,92.30
2018-12-13T00:23:10.679Z,91.80
2018-12-13T00:25:39.364Z,91.90
2018-12-13T00:28:08.211Z,91.70
2018-12-13T00:30:36.909Z,92.40
2018-12-13T00:33:05.687Z,92.50
2018-12-13T00:35:34.451Z,92.10
2018-12-13T00:38:03.137Z,91.80
2018-12-13T00:40:31.894Z,91.70
2018-12-13T00:43:00.563Z,91.70
2018-12-13T00:45:29.318Z,91.80
2018-12-13T00:47:58.042Z,91.70
2018-12-13T00:50:26.760Z,91.40
2018-12-13T00:52:55.458Z,91.90
2018-12-13T00:55:24.187Z,91.80
2018-12-13T00:57:52.967Z,91.50
2018-12-13T01:00:21.827Z,91.70
2018-12-13T01:02:50.595Z,91.60
2018-12-13T01:05:19.342Z,91.60
2018-12-13T01:07:48.086Z,91.40
2018-12-13T01:10:16.966Z,91.70
2018-12-13T01:12:45.639Z,91.90
2018-12-13T01:15:14.368Z,91.60
2018-12-13T01:17:43.072Z,91.50
2018-12-13T01:20:11.915Z,91.50
2018-12-13T01:22:40.694Z,91.00
2018-12-13T01:25:09.544Z,91.30
2018-12-13T01:27:38.310Z,91.30
2018-12-13T01:30:07.122Z,91.40
2018-12-13T01:32:35.871Z,91.50
2018-12-13T01:35:05.248Z,91.70
2018-12-13T01:37:33.923Z,91.60
2018-12-13T01:40:02.783Z,91.60
2018-12-13T01:42:31.630Z,91.80
2018-12-13T01:45:00.444Z,91.70
2018-12-13T01:47:29.122Z,91.30
2018-12-13T01:49:57.867Z,91.50
2018-12-13T01:52:26.598Z,91.30
2018-12-13T01:54:55.307Z,91.40
2018-12-13T01:57:24.070Z,91.30
2018-12-13T01:59:53.428Z,91.40
2018-12-13T02:02:22.199Z,91.50
2018-12-13T02:04:50.854Z,91.90
2018-12-13T02:07:19.535Z,92.10
2018-12-13T02:09:48.244Z,92.00
2018-12-13T02:12:17.010Z,92.20
2018-12-13T02:14:45.705Z,91.70
2018-12-13T02:17:14.380Z,91.80
2018-12-13T02:19:43.151Z,91.60
2018-12-13T02:22:11.952Z,91.50
2018-12-13T02:24:40.679Z,91.90
2018-12-13T02:27:10.111Z,92.00
2018-12-13T02:29:38.857Z,92.10
2018-12-13T02:32:07.582Z,92.00
2018-12-13T02:34:36.358Z,91.40
2018-12-13T02:37:06.193Z,91.70
2018-12-13T02:39:35.249Z,91.80
2018-12-13T02:42:04.078Z,91.50
2018-12-13T02:44:32.753Z,91.10
2018-12-13T02:47:01.558Z,91.10
2018-12-13T02:49:30.376Z,91.40
2018-12-13T02:51:59.033Z,90.90
2018-12-13T02:54:27.703Z,91.20
2018-12-13T02:56:56.472Z,90.70
2018-12-13T02:59:25.202Z,90.80
2018-12-13T03:01:53.879Z,90.80
2018-12-13T03:04:23.679Z,90.90
2018-12-13T03:06:52.563Z,90.90
2018-12-13T03:09:21.311Z,91.40
2018-12-13T03:11:50.121Z,91.50
2018-12-13T03:14:19.010Z,91.70
2018-12-13T03:16:47.850Z,91.50
2018-12-13T03:19:16.651Z,91.40
2018-12-13T03:21:45.302Z,91.60
2018-12-13T03:24:14.058Z,91.30
2018-12-13T03:26:42.758Z,91.00
2018-12-13T03:29:11.550Z,91.00
2018-12-13T03:31:40.219Z,91.40
2018-12-13T03:34:08.930Z,91.70
2018-12-13T03:36:37.706Z,91.40
2018-12-13T03:39:07.801Z,91.40
2018-12-13T03:41:38.517Z,91.20
2018-12-13T03:44:07.376Z,91.00
2018-12-13T03:46:36.107Z,91.60
2018-12-13T03:49:04.885Z,91.40
2018-12-13T03:51:33.726Z,91.30
2018-12-13T03:54:02.628Z,91.40
2018-12-13T03:56:31.326Z,91.40
2018-12-13T03:59:00.113Z,91.80
2018-12-13T04:01:28.901Z,91.50
2018-12-13T04:03:57.660Z,91.60
2018-12-13T04:06:26.446Z,91.60
2018-12-13T04:08:55.214Z,91.20
2018-12-13T04:11:23.934Z,91.30
2018-12-13T04:13:52.598Z,91.60
2018-12-13T04:16:21.332Z,91.50
2018-12-13T04:18:50.004Z,91.20
2018-12-13T04:21:18.722Z,91.20
2018-12-13T04:23:47.442Z,90.90
2018-12-13T04:26:16.174Z,90.90
2018-12-13T04:28:44.913Z,91.00
2018-12-13T04:31:13.651Z,91.20
2018-12-13T04:33:42.448Z,91.30
2018-12-13T04:36:11.253Z,91.60
2018-12-13T04:38:39.980Z,91.20
2018-12-13T04:41:08.779Z,91.60
2018-12-13T04:43:37.502Z,91.60
2018-12-13T04:46:06.170Z,91.00
2018-12-13T04:48:34.861Z,90.90
2018-12-13T04:51:03.671Z,90.70
2018-12-13T04:53:32.439Z,90.70
2018-12-13T04:56:01.103Z,90.60
2018-12-13T04:58:31.102Z,90.50
2018-12-13T05:00:59.936Z,90.50
2018-12-13T05:03:28.643Z,90.30
2018-12-13T05:05:57.523Z,90.30
2018-12-13T05:08:26.297Z,90.40
2018-12-13T05:10:55.325Z,90.90
2018-12-13T05:13:24.073Z,90.60
2018-12-13T05:15:52.906Z,90.90
2018-12-13T05:18:21.625Z,90.80
2018-12-13T05:20:50.382Z,90.80
2018-12-13T05:23:25.705Z,90.80
2018-12-13T05:25:54.442Z,90.70
2018-12-13T05:28:23.230Z,90.60
2018-12-13T05:30:52.017Z,90.60
2018-12-13T05:33:20.690Z,90.80
2018-12-13T05:35:49.381Z,91.00
2018-12-13T05:38:18.089Z,91.40
2018-12-13T05:40:46.906Z,91.00
2018-12-13T05:43:15.569Z,91.00
2018-12-13T05:45:44.267Z,91.20
2018-12-13T05:48:13.022Z,91.00
2018-12-13T05:50:41.849Z,91.50
2018-12-13T05:53:10.616Z,92.00
2018-12-13T05:55:39.331Z,92.00
2018-12-13T05:58:08.095Z,92.00
2018-12-13T06:00:36.898Z,92.20
2018-12-13T06:03:05.718Z,92.30
2018-12-13T06:05:34.390Z,92.60
2018-12-13T06:08:03.193Z,92.70
2018-12-13T06:10:31.955Z,92.70
2018-12-13T06:13:00.673Z,92.50
2018-12-13T06:15:29.358Z,92.30
2018-12-13T06:17:58.144Z,92.60
2018-12-13T06:20:26.814Z,93.10
2018-12-13T06:22:55.676Z,93.20
2018-12-13T06:25:24.584Z,93.20
2018-12-13T06:27:53.430Z,93.10
2018-12-13T06:30:22.257Z,93.20
2018-12-13T06:32:50.965Z,93.20
2018-12-13T06:35:19.692Z,93.10
2018-12-13T06:37:48.354Z,93.20
2018-12-13T06:40:17.179Z,92.90
2018-12-13T06:42:45.778Z,92.50
2018-12-13T06:45:14.514Z,92.90
2018-12-13T06:47:43.201Z,93.50
2018-12-13T06:50:11.975Z,93.10
2018-12-13T06:52:40.618Z,93.20
2018-12-13T06:55:09.454Z,93.40
2018-12-13T06:57:38.118Z,93.50
2018-12-13T07:00:08.046Z,93.70
2018-12-13T07:02:36.861Z,93.70
2018-12-13T07:05:05.698Z,93.80
2018-12-13T07:07:34.482Z,93.70
2018-12-13T07:10:03.491Z,93.50
2018-12-13T07:12:32.324Z,93.70
2018-12-13T07:15:02.619Z,94.10
2018-12-13T07:17:31.357Z,93.80
2018-12-13T07:20:00.025Z,93.80
2018-12-13T07:22:28.754Z,94.00
2018-12-13T07:24:57.479Z,93.70
2018-12-13T07:27:26.333Z,93.50
2018-12-13T07:29:55.122Z,93.30
2018-12-13T07:32:23.784Z,93.10
2018-12-13T07:34:52.489Z,93.20
2018-12-13T07:37:21.235Z,93.00
2018-12-13T07:39:50.054Z,93.20
2018-12-13T07:42:18.790Z,92.90
2018-12-13T07:44:47.466Z,93.10
2018-12-13T07:47:16.214Z,93.30
2018-12-13T07:49:44.917Z,92.90
2018-12-13T07:52:13.659Z,92.90
2018-12-13T07:54:42.454Z,93.00
2018-12-13T07:57:11.186Z,93.00
2018-12-13T07:59:39.923Z,92.90
2018-12-13T08:02:08.709Z,92.60
2018-12-13T08:04:37.449Z,92.80
2018-12-13T08:07:06.272Z,92.50
2018-12-13T08:09:35.043Z,92.80
2018-12-13T08:12:03.874Z,92.80
2018-12-13T08:14:32.526Z,92.70
2018-12-13T08:17:01.288Z,92.70
2018-12-13T08:19:32.002Z,93.10
2018-12-13T08:22:00.784Z,93.40
2018-12-13T08:24:29.506Z,93.50
2018-12-13T08:27:00.101Z,93.20
2018-12-13T08:29:28.878Z,93.30
2018-12-13T08:31:57.605Z,93.00
2018-12-13T08:34:26.343Z,93.10
2018-12-13T08:36:55.062Z,93.00
2018-12-13T08:39:23.783Z,93.00
2018-12-13T08:41:52.893Z,92.60
2018-12-13T08:44:21.600Z,92.70
2018-12-13T08:46:50.390Z,92.70
2018-12-13T08:49:19.164Z,92.60
2018-12-13T08:51:48.479Z,92.20
2018-12-13T08:54:17.220Z,92.00
2018-12-13T08:56:46.051Z,92.10
2018-12-13T08:59:14.774Z,92.60
2018-12-13T09:01:43.484Z,92.60
2018-12-13T09:04:12.262Z,92.60
2018-12-13T09:06:40.930Z,93.00
2018-12-13T09:09:09.694Z,93.30
2018-12-13T09:11:38.403Z,93.30
2018-12-13T09:14:07.118Z,93.40
2018-12-13T09:16:35.950Z,93.30
2018-12-13T09:19:04.739Z,92.90
2018-12-13T09:21:33.542Z,92.50
2018-12-13T09:24:02.360Z,92.60
2018-12-13T09:26:31.074Z,92.80
2018-12-13T09:28:59.841Z,92.30
2018-12-13T09:31:28.615Z,92.30
2018-12-13T09:33:57.352Z,92.70
2018-12-13T09:36:26.157Z,92.60
2018-12-13T09:38:54.934Z,92.10
2018-12-13T09:41:23.723Z,92.10
2018-12-13T09:43:52.430Z,92.30
2018-12-13T09:46:21.222Z,92.30
2018-12-13T09:48:50.017Z,91.90
2018-12-13T09:51:18.798Z,91.50
2018-12-13T09:53:47.473Z,91.40
2018-12-13T09:56:16.157Z,91.60
2018-12-13T09:58:44.811Z,91.30
2018-12-13T10:01:13.506Z,91.00
2018-12-13T10:03:42.267Z,90.70
2018-12-13T10:06:10.960Z,90.60
2018-12-13T10:08:46.140Z,90.60
2018-12-13T10:11:10.515Z,90.70
2018-12-13T10:13:39.306Z,90.90
2018-12-13T10:16:08.111Z,91.00
2018-12-13T10:18:36.884Z,90.40
2018-12-13T10:21:05.665Z,90.60
2018-12-13T10:23:34.347Z,90.20
2018-12-13T10:26:03.282Z,90.70
2018-12-13T10:28:33.618Z,91.00
2018-12-13T10:31:02.390Z,91.20
2018-12-13T10:33:31.133Z,90.40
2018-12-13T10:35:59.964Z,90.00
2018-12-13T10:38:28.825Z,90.40
2018-12-13T10:40:57.647Z,90.10
2018-12-13T10:43:26.405Z,90.10
2018-12-13T10:45:55.239Z,90.60
2018-12-13T10:48:25.087Z,90.20
2018-12-13T10:50:53.790Z,90.00
2018-12-13T10:53:22.451Z,90.10
2018-12-13T10:55:51.136Z,90.30
2018-12-13T10:58:19.854Z,90.20
2018-12-13T11:00:58.935Z,90.40
2018-12-13T11:03:33.035Z,90.80
2018-12-13T11:06:01.788Z,90.10
2018-12-13T11:08:30.894Z,90.70
2018-12-13T11:10:59.804Z,90.90
2018-12-13T11:13:28.612Z,90.80
2018-12-13T11:15:57.466Z,90.80
2018-12-13T11:18:26.180Z,91.00
2018-12-13T11:20:54.919Z,90.90
2018-12-13T11:23:23.806Z,90.80
2018-12-13T11:25:52.615Z,90.90
2018-12-13T11:28:32.778Z,90.70
2018-12-13T11:31:01.478Z,90.90
2018-12-13T11:33:30.198Z,90.80
2018-12-13T11:35:58.918Z,91.20
2018-12-13T11:38:27.618Z,90.70
2018-12-13T11:40:56.279Z,90.70
2018-12-13T11:43:25.050Z,90.60
2018-12-13T11:45:53.906Z,91.00
2018-12-13T11:48:22.604Z,90.90
2018-12-13T11:50:51.329Z,90.30
2018-12-13T11:53:20.123Z,90.30
2018-12-13T11:55:48.915Z,90.50
2018-12-13T11:58:17.749Z,90.60
2018-12-13T12:00:46.428Z,90.20
2018-12-13T12:03:15.187Z,90.10
2018-12-13T12:05:43.926Z,90.10
2018-12-13T12:08:12.674Z,89.80
2018-12-13T12:10:41.423Z,89.70
2018-12-13T12:13:10.108Z,90.00
2018-12-13T12:15:38.921Z,90.10
2018-12-13T12:18:07.621Z,90.40
2018-12-13T12:20:36.383Z,90.40
2018-12-13T12:23:05.117Z,90.70
2018-12-13T12:25:33.826Z,90.60
2018-12-13T12:28:02.617Z,90.90
2018-12-13T12:30:33.026Z,91.00
2018-12-13T12:33:01.718Z,91.00
2018-12-13T12:35:30.464Z,90.60
2018-12-13T12:37:59.174Z,90.70
2018-12-13T12:40:27.855Z,90.80
2018-12-13T12:42:56.592Z,90.80
2018-12-13T12:45:25.262Z,90.60
2018-12-13T12:47:53.974Z,90.60
2018-12-13T12:50:22.771Z,90.30
2018-12-13T12:52:51.595Z,90.20
2018-12-13T12:55:20.359Z,90.60
2018-12-13T12:57:49.114Z,90.80
2018-12-13T13:00:17.907Z,91.20
2018-12-13T13:02:47.658Z,90.60
2018-12-13T13:05:16.574Z,90.70
2018-12-13T13:07:45.275Z,90.50
2018-12-13T13:10:14.036Z,90.30
2018-12-13T13:12:42.690Z,90.50
2018-12-13T13:15:11.470Z,90.70
2018-12-13T13:17:40.239Z,90.60
2018-12-13T13:20:09.009Z,90.70
2018-12-13T13:22:37.785Z,91.20
2018-12-13T13:25:06.575Z,91.10
2018-12-13T13:27:35.316Z,90.80
2018-12-13T13:30:04.438Z,91.20
2018-12-13T13:32:33.229Z,91.10
2018-12-13T13:35:01.995Z,91.10
2018-12-13T13:37:30.791Z,91.00
2018-12-13T13:39:59.575Z,91.10
2018-12-13T13:42:28.250Z,91.00
2018-12-13T13:45:01.957Z,90.90
2018-12-13T13:47:30.883Z,90.50
2018-12-13T13:49:59.900Z,90.40
2018-12-13T13:52:28.844Z,90.90
2018-12-13T13:54:57.570Z,90.90
2018-12-13T13:57:26.306Z,91.20
2018-12-13T13:59:55.097Z,91.40
2018-12-13T14:02:23.787Z,91.60
2018-12-13T14:04:52.463Z,91.30
2018-12-13T14:07:21.133Z,91.50
2018-12-13T14:09:49.899Z,91.60
2018-12-13T14:12:18.558Z,91.40
2018-12-13T14:14:47.257Z,91.20
2018-12-13T14:17:16.049Z,91.20
2018-12-13T14:19:44.796Z,91.20
2018-12-13T14:22:13.615Z,91.20
2018-12-13T14:24:42.433Z,91.40
2018-12-13T14:27:11.550Z,91.00
2018-12-13T14:29:40.350Z,91.40
2018-12-13T14:32:09.129Z,91.30
2018-12-13T14:34:37.846Z,91.50
2018-12-13T14:37:06.586Z,91.70
2018-12-13T14:39:35.349Z,91.70
2018-12-13T14:42:06.016Z,92.10
2018-12-13T14:44:37.362Z,92.40
2018-12-13T14:47:06.158Z,92.50
2018-12-13T14:49:34.966Z,92.80
2018-12-13T14:52:03.794Z,92.80
2018-12-13T14:54:32.643Z,92.50
2018-12-13T14:57:02.431Z,92.30
2018-12-13T14:59:31.149Z,92.00
2018-12-13T15:01:59.955Z,92.20
2018-12-13T15:04:28.671Z,92.10
2018-12-13T15:06:57.493Z,92.10
2018-12-13T15:09:26.210Z,92.40
2018-12-13T15:11:54.927Z,92.50
2018-12-13T15:14:23.675Z,92.40
2018-12-13T15:16:52.369Z,92.60
2018-12-13T15:19:21.175Z,92.60
2018-12-13T15:21:49.921Z,92.50
2018-12-13T15:24:18.734Z,92.60
2018-12-13T15:26:47.423Z,92.60
2018-12-13T15:29:16.122Z,92.60
2018-12-13T15:31:44.917Z,92.50
2018-12-13T15:34:13.597Z,92.40
2018-12-13T15:36:42.250Z,92.30
2018-12-13T15:39:11.116Z,92.50
2018-12-13T15:41:39.846Z,92.70
2018-12-13T15:44:08.670Z,93.00
2018-12-13T15:46:37.406Z,92.50
2018-12-13T15:49:06.278Z,92.50
2018-12-13T15:51:35.076Z,92.40
2018-12-13T15:54:03.865Z,92.40
2018-12-13T15:56:32.559Z,92.30
2018-12-13T15:59:01.395Z,92.30
2018-12-13T16:01:30.212Z,91.90
2018-12-13T16:03:59.045Z,91.60
2018-12-13T16:06:27.777Z,91.60
2018-12-13T16:08:56.582Z,91.20
2018-12-13T16:11:25.358Z,91.60
2018-12-13T16:13:54.128Z,91.20
2018-12-13T16:16:22.870Z,91.50
2018-12-13T16:18:51.621Z,91.40
2018-12-13T16:21:20.307Z,91.10
2018-12-13T16:23:49.097Z,91.30
2018-12-13T16:26:17.928Z,91.50
2018-12-13T16:28:46.585Z,91.10
2018-12-13T16:31:15.378Z,90.80
2018-12-13T16:33:44.132Z,90.90
2018-12-13T16:36:12.858Z,90.60
2018-12-13T16:38:41.618Z,91.00
2018-12-13T16:41:10.384Z,90.90
2018-12-13T16:43:39.207Z,91.30
2018-12-13T16:46:08.047Z,91.10
2018-12-13T16:48:36.794Z,91.10
2018-12-13T16:51:05.570Z,91.20
2018-12-13T16:53:34.334Z,91.00
2018-12-13T16:56:03.037Z,91.10
2018-12-13T16:58:31.722Z,90.80
2018-12-13T17:01:00.546Z,90.70
2018-12-13T17:03:37.981Z,90.80
2018-12-13T17:06:07.014Z,90.80
2018-12-13T17:08:35.817Z,90.80
2018-12-13T17:11:04.676Z,90.20
2018-12-13T17:13:50.403Z,90.30
2018-12-13T17:16:19.282Z,90.10
2018-12-13T17:18:49.036Z,90.30
2018-12-13T17:21:17.873Z,90.10
2018-12-13T17:23:46.578Z,89.70
2018-12-13T17:26:15.434Z,89.90
2018-12-13T17:28:44.146Z,89.60
2018-12-13T17:31:12.913Z,89.90
2018-12-13T17:33:41.850Z,89.80
2018-12-13T17:36:10.622Z,90.20
2018-12-13T17:38:39.363Z,90.60
2018-12-13T17:41:08.163Z,90.50
2018-12-13T17:43:36.978Z,90.70
2018-12-13T17:46:07.461Z,90.40
2018-12-13T17:48:36.987Z,90.60
2018-12-13T17:51:05.731Z,90.80
2018-12-13T17:53:34.537Z,90.50
2018-12-13T17:56:03.331Z,90.30
2018-12-13T17:58:32.030Z,90.70
2018-12-13T18:01:00.735Z,90.50
2018-12-13T18:03:29.390Z,89.70
2018-12-13T18:05:58.183Z,90.00
2018-12-13T18:08:26.959Z,90.10
2018-12-13T18:10:55.678Z,90.40
2018-12-13T18:13:24.463Z,90.40
2018-12-13T18:15:53.141Z,90.50
2018-12-13T18:18:21.903Z,90.50
2018-12-13T18:20:50.724Z,90.80
2018-12-13T18:23:20.675Z,90.40
2018-12-13T18:25:49.661Z,90.60
2018-12-13T18:28:18.485Z,90.30
2018-12-13T18:30:47.207Z,90.50
2018-12-13T18:33:15.975Z,90.30
2018-12-13T18:35:44.683Z,90.30
2018-12-13T18:38:13.382Z,90.70
2018-12-13T18:40:42.057Z,90.70
2018-12-13T18:43:11.812Z,90.90
2018-12-13T18:45:40.559Z,90.90
2018-12-13T18:48:09.259Z,91.00
2018-12-13T18:50:38.006Z,90.90
2018-12-13T18:53:06.827Z,90.90
2018-12-13T18:55:35.570Z,90.90
2018-12-13T18:58:04.870Z,91.00
2018-12-13T19:00:33.640Z,91.20
2018-12-13T19:03:02.370Z,91.10
2018-12-13T19:05:31.147Z,91.00
2018-12-13T19:08:01.126Z,90.80
2018-12-13T19:10:30.039Z,90.90
2018-12-13T19:12:58.758Z,90.70
2018-12-13T19:15:27.537Z,90.70
2018-12-13T19:17:56.330Z,91.20
2018-12-13T19:20:25.214Z,90.70
2018-12-13T19:22:54.038Z,90.60
2018-12-13T19:25:22.982Z,90.70
2018-12-13T19:27:51.721Z,90.80
2018-12-13T19:30:20.537Z,90.90
2018-12-13T19:32:50.303Z,90.60
2018-12-13T19:35:19.450Z,90.70
2018-12-13T19:37:48.441Z,91.00
2018-12-13T19:40:17.246Z,91.00
2018-12-13T19:42:46.093Z,91.00
2018-12-13T19:45:14.832Z,90.40
2018-12-13T19:47:43.657Z,90.20
2018-12-13T19:50:12.450Z,90.30
2018-12-13T19:52:41.090Z,90.40
2018-12-13T19:55:09.830Z,90.40
2018-12-13T19:57:38.575Z,90.30
2018-12-13T20:00:08.677Z,90.20
2018-12-13T20:02:37.470Z,90.30
2018-12-13T20:05:06.545Z,90.20
2018-12-13T20:07:35.231Z,90.10
2018-12-13T20:10:05.644Z,90.30
2018-12-13T20:12:34.549Z,90.00
2018-12-13T20:15:03.302Z,90.20
2018-12-13T20:17:32.090Z,90.20
2018-12-13T20:20:00.911Z,90.50
2018-12-13T20:22:29.598Z,90.80
2018-12-13T20:24:58.513Z,90.30
2018-12-13T20:27:27.356Z,90.10
2018-12-13T20:29:56.060Z,90.10
2018-12-13T20:32:24.934Z,90.30
2018-12-13T20:34:53.898Z,90.00
2018-12-13T20:37:22.589Z,89.70
2018-12-13T20:39:51.239Z,90.20
2018-12-13T20:42:20.521Z,90.30
2018-12-13T20:44:49.283Z,89.80
2018-12-13T20:47:18.033Z,89.70
2018-12-13T20:49:46.750Z,89.40
2018-12-13T20:52:15.558Z,89.40
2018-12-13T20:54:44.342Z,90.30
2018-12-13T20:57:13.032Z,90.00
2018-12-13T20:59:41.729Z,90.00
2018-12-13T21:02:10.552Z,90.10
2018-12-13T21:04:39.265Z,90.50
2018-12-13T21:07:13.383Z,90.50
2018-12-13T21:09:42.161Z,90.70
2018-12-13T21:12:10.955Z,90.90
2018-12-13T21:14:39.779Z,90.60
2018-12-13T21:17:08.574Z,90.90
2018-12-13T21:19:37.329Z,90.10
2018-12-13T21:22:05.995Z,90.70
2018-12-13T21:24:35.500Z,90.50
2018-12-13T21:27:04.287Z,90.70
2018-12-13T21:29:33.063Z,90.70
2018-12-13T21:32:01.763Z,91.00
2018-12-13T21:34:31.568Z,91.50
2018-12-13T21:37:00.398Z,91.60
2018-12-13T21:39:29.180Z,91.50
2018-12-13T21:41:57.867Z,91.50
2018-12-13T21:44:26.644Z,91.40
2018-12-13T21:46:55.366Z,91.60
2018-12-13T21:49:24.100Z,91.70
2018-12-13T21:51:52.851Z,91.90
2018-12-13T21:54:21.652Z,92.00
2018-12-13T21:56:50.618Z,92.20
2018-12-13T21:59:19.384Z,92.20
2018-12-13T22:01:49.182Z,92.00
2018-12-13T22:04:18.069Z,91.80
2018-12-13T22:06:46.837Z,91.80
2018-12-13T22:09:15.554Z,92.00
2018-12-13T22:11:44.318Z,91.90
2018-12-13T22:14:13.021Z,92.00
2018-12-13T22:16:41.815Z,92.10
2018-12-13T22:19:10.514Z,91.80
2018-12-13T22:21:39.266Z,92.00
2018-12-13T22:24:07.979Z,91.90
2018-12-13T22:26:36.704Z,91.70
2018-12-13T22:29:05.483Z,91.90
2018-12-13T22:31:34.300Z,91.60
2018-12-13T22:34:03.174Z,91.60
2018-12-13T22:36:31.902Z,91.70
2018-12-13T22:39:00.830Z,91.80
2018-12-13T22:41:31.542Z,92.00
2018-12-13T22:44:00.322Z,92.20
2018-12-13T22:46:29.334Z,92.20
2018-12-13T22:48:58.165Z,92.00
2018-12-13T22:51:26.890Z,92.10
2018-12-13T22:53:55.665Z,92.50
2018-12-13T22:56:24.469Z,92.50
2018-12-13T22:58:53.366Z,92.20
2018-12-13T23:01:22.237Z,92.30
2018-12-13T23:03:52.770Z,92.20
2018-12-13T23:06:21.502Z,92.00
2018-12-13T23:08:50.294Z,92.10
2018-12-13T23:11:19.134Z,91.80
2018-12-13T23:13:47.869Z,91.70
2018-12-13T23:16:16.675Z,91.90
2018-12-13T23:18:46.525Z,92.40
2018-12-13T23:21:15.567Z,92.50
2018-12-13T23:23:44.326Z,92.50
2018-12-13T23:26:13.129Z,92.60
2018-12-13T23:28:41.782Z,92.80
2018-12-13T23:31:10.469Z,92.60
2018-12-13T23:33:39.206Z,92.00
2018-12-13T23:36:07.895Z,92.30
2018-12-13T23:38:36.695Z,92.50
2018-12-13T23:41:05.374Z,92.50
2018-12-13T23:43:34.166Z,92.50
2018-12-13T23:46:03.018Z,92.50
2018-12-13T23:48:31.846Z,92.40
2018-12-13T23:51:00.510Z,92.60
2018-12-13T23:53:29.395Z,92.40
2018-12-13T23:55:58.465Z,92.30
2018-12-13T23:58:27.335Z,92.10
